NCAR-RAP Real-Time Weather Data

Output produced by METARs form (19 October 2018  15:49 UTC)
found at http://weather.rap.ucar.edu/surface/
 
RJNK 191500Z 15004KT 9999 FEW015CB SCT100 BKN160 13/11 Q1019
RJNK 191400Z 10005KT 9999 FEW015CB BKN100 14/12 Q1019 RETS
RJNK 191300Z 12005KT 9999 FEW015CB BKN100 15/12 Q1019
RJNK 191200Z VRB02KT 9999 FEW015 SCT080 BKN100 14/12 Q1019
RJNK 191100Z 10003KT 9999 FEW015 BKN100 15/12 Q1018
RJNK 191000Z 09003KT 9999 FEW015CB SCT100 14/13 Q1018
RJNK 190900Z 10006KT 9999 FEW015CB BKN100 15/13 Q1017
RJNK 190800Z 06005KT 9999 FEW015 SCT050 15/13 Q1017 RETS
RJNK 190700Z 10007KT 9999 TS FEW015CB SCT030 BKN050 16/13 Q1017
RJNK 190600Z 08004KT 050V110 9999 -TSRA FEW015CB BKN030 BKN050 16/13 Q1017
RJNK 190500Z 15011KT 120V180 9999 -TSRA FEW015CB BKN030 BKN050 16/11 Q1016
RJNK 190400Z 32009KT 9999 TS FEW015CB SCT050 BKN150 20/13 Q1016
RJNK 190300Z 31007KT 280V340 9999 FEW015CB SCT150 BKN210 20/13 Q1016
RJNK 190200Z VRB02KT 9999 FEW030 SCT170 20/12 Q1017
RJNK 190100Z VRB03KT 9999 -SHRA FEW015 SCT050 BKN210 19/12 Q1017
RJNK 190000Z 03004KT 340V070 9999 FEW015CB BKN100 18/11 Q1017
RJNK 182300Z VRB03KT 9999 FEW015CB SCT170 16/11 Q1017
RJNK 182200Z 12004KT 080V140 9999 FEW015CB SCT120 14/11 Q1017
RJNK 182100Z 13005KT 9999 FEW015CB 13/11 Q1017
RJNK 182000Z 11003KT 9999 -TSRA FEW015CB BKN030 13/11 Q1016
RJNK 181900Z 09003KT 020V160 9999 TS FEW015CB SCT030 BKN050 12/11 Q1016
RJNK 181800Z 20004KT 9999 TS FEW015CB SCT050 12/11 Q1015
RJNK 181700Z 20003KT 160V220 9999 FEW015CB SCT120 13/11 Q1015
RJNK 181600Z VRB02KT 9999 FEW030 13/11 Q1016
RJNK 181500Z VRB01KT 9999 FEW030 13/11 Q1016
RJNK 181400Z 13005KT 9999 FEW015 SCT060 15/12 Q1016
RJNK 181300Z 11004KT 9999 FEW015 SCT080 15/13 Q1016
RJNK 181200Z 13003KT 100V160 9999 TS FEW015CB SCT060 BKN080 16/12 Q1017
RJNK 181100Z 10004KT 9999 TS FEW015CB BKN080 16/12 Q1016
RJNK 181000Z 06009KT 9999 TS FEW015CB 16/11 Q1016
RJNK 180900Z 05011KT 9999 TS FEW015CB SCT045 17/11 Q1015
RJNK 180800Z 05015KT 9999 FEW015 SCT045 18/11 Q1015
RJNK 180700Z 04013KT 9999 FEW030 SCT045 20/11 Q1014
RJNK 180600Z 05014KT 9999 FEW030 21/11 Q1014
RJNK 180500Z 03013KT 9999 FEW030 22/11 Q1014
RJNK 180400Z 02009KT 320V060 9999 FEW030 SCT230 22/10 Q1014
RJNK 180300Z 04011KT 9999 FEW030 BKN230 22/10 Q1014
RJNK 180200Z 04014KT 9999 FEW030 SCT250 21/09 Q1015
RJNK 180100Z 05012KT 9999 FEW030 20/10 Q1015
RJNK 180000Z 12003KT 060V150 9999 FEW030 16/10 Q1015
RJNK 172300Z 17004KT 9999 FEW030 13/10 Q1015
RJNK 172200Z VRB02KT 9999 FEW030 11/08 Q1015
RJNK 172100Z 09003KT 060V120 9999 FEW030 10/08 Q1015
RJNK 172000Z 13004KT 9999 FEW030 SCT/// 10/08 Q1015
RJNK 171900Z 13003KT 9999 FEW030 SCT/// 10/09 Q1014
RJNK 171800Z 16003KT 9999 FEW030 11/09 Q1014
RJNK 171700Z 12003KT 9999 FEW030 12/08 Q1014
RJNK 171600Z 09003KT 9999 FEW030 12/09 Q1014
RJNK 171500Z 12005KT 9999 FEW030 12/10 Q1014
RJNK 171400Z VRB02KT 9999 FEW030 13/11 Q1014
RJNK 171300Z 09005KT 050V160 9999 FEW030 14/12 Q1014
RJNK 171200Z 02010KT 9999 FEW030 16/12 Q1014
RJNK 171100Z 03009KT 9999 FEW030 SCT150 16/12 Q1014
RJNK 171000Z 04010KT 9999 FEW030 BKN150 17/12 Q1014
RJNK 170900Z 05009KT 9999 FEW030 BKN150 18/12 Q1013
RJNK 170800Z 05010KT 9999 FEW030 SCT160 18/12 Q1013
RJNK 170700Z 04012KT 9999 FEW030 19/12 Q1012
RJNK 170600Z 03014KT 9999 FEW030 20/10 Q1012
RJNK 170500Z 01012KT 9999 FEW030 21/12 Q1012
RJNK 170400Z 01014KT 9999 FEW030 20/12 Q1012